sensor_id;sensor_type;location;lat;lon;timestamp;P1;durP1;ratioP1;P2;durP2;ratioP2
19006;SDS011;9636;47.382;8.480;2023-02-15T00:01:27;7.50;;;5.93;;
19006;SDS011;9636;47.382;8.480;2023-02-15T00:03:54;6.00;;;5.27;;
19006;SDS011;9636;47.382;8.480;2023-02-15T00:06:21;6.13;;;5.37;;
19006;SDS011;9636;47.382;8.480;2023-02-15T00:08:48;6.60;;;5.70;;
19006;SDS011;9636;47.382;8.480;2023-02-15T00:11:16;5.87;;;5.13;;
19006;SDS011;9636;47.382;8.480;2023-02-15T00:14:06;6.67;;;5.50;;
19006;SDS011;9636;47.382;8.480;2023-02-15T00:16:33;5.77;;;5.03;;
19006;SDS011;9636;47.382;8.480;2023-02-15T00:19:00;7.63;;;5.70;;
19006;SDS011;9636;47.382;8.480;2023-02-15T00:21:28;5.80;;;4.80;;
19006;SDS011;9636;47.382;8.480;2023-02-15T00:23:55;6.27;;;4.93;;
19006;SDS011;9636;47.382;8.480;2023-02-15T00:26:23;7.00;;;5.60;;
19006;SDS011;9636;47.382;8.480;2023-02-15T00:28:50;7.07;;;5.40;;
19006;SDS011;9636;47.382;8.480;2023-02-15T00:31:19;6.23;;;5.23;;
19006;SDS011;9636;47.382;8.480;2023-02-15T00:33:46;6.37;;;4.97;;
19006;SDS011;9636;47.382;8.480;2023-02-15T00:36:13;6.13;;;4.83;;
19006;SDS011;9636;47.382;8.480;2023-02-15T00:38:40;5.77;;;4.83;;
19006;SDS011;9636;47.382;8.480;2023-02-15T00:41:08;5.63;;;4.77;;
19006;SDS011;9636;47.382;8.480;2023-02-15T00:43:35;6.83;;;5.40;;
19006;SDS011;9636;47.382;8.480;2023-02-15T00:46:04;6.23;;;5.00;;
19006;SDS011;9636;47.382;8.480;2023-02-15T00:48:32;7.30;;;5.43;;
19006;SDS011;9636;47.382;8.480;2023-02-15T00:51:00;6.33;;;5.27;;
19006;SDS011;9636;47.382;8.480;2023-02-15T00:53:27;5.90;;;5.10;;
19006;SDS011;9636;47.382;8.480;2023-02-15T00:55:55;6.13;;;4.90;;
19006;SDS011;9636;47.382;8.480;2023-02-15T00:58:22;5.83;;;4.93;;
19006;SDS011;9636;47.382;8.480;2023-02-15T01:00:49;5.53;;;4.80;;
19006;SDS011;9636;47.382;8.480;2023-02-15T01:03:17;5.57;;;5.00;;
19006;SDS011;9636;47.382;8.480;2023-02-15T01:05:46;5.80;;;5.00;;
19006;SDS011;9636;47.382;8.480;2023-02-15T01:08:13;5.43;;;4.70;;
19006;SDS011;9636;47.382;8.480;2023-02-15T01:10:40;5.80;;;4.77;;
19006;SDS011;9636;47.382;8.480;2023-02-15T01:13:09;6.00;;;5.17;;
19006;SDS011;9636;47.382;8.480;2023-02-15T01:15:36;5.00;;;4.37;;
19006;SDS011;9636;47.382;8.480;2023-02-15T01:18:03;5.20;;;4.70;;
19006;SDS011;9636;47.382;8.480;2023-02-15T01:20:33;5.60;;;4.70;;
19006;SDS011;9636;47.382;8.480;2023-02-15T01:23:03;5.70;;;4.77;;
19006;SDS011;9636;47.382;8.480;2023-02-15T01:25:30;5.27;;;4.73;;
19006;SDS011;9636;47.382;8.480;2023-02-15T01:28:06;5.07;;;4.50;;
19006;SDS011;9636;47.382;8.480;2023-02-15T01:30:33;5.27;;;4.50;;
19006;SDS011;9636;47.382;8.480;2023-02-15T01:33:00;5.30;;;4.80;;
19006;SDS011;9636;47.382;8.480;2023-02-15T01:35:28;5.30;;;4.60;;
19006;SDS011;9636;47.382;8.480;2023-02-15T01:37:55;5.23;;;4.53;;
19006;SDS011;9636;47.382;8.480;2023-02-15T01:40:24;5.37;;;4.60;;
19006;SDS011;9636;47.382;8.480;2023-02-15T01:42:51;6.07;;;4.40;;
19006;SDS011;9636;47.382;8.480;2023-02-15T01:45:20;5.33;;;4.63;;
19006;SDS011;9636;47.382;8.480;2023-02-15T01:47:49;5.00;;;4.40;;
19006;SDS011;9636;47.382;8.480;2023-02-15T01:50:18;5.13;;;4.30;;
19006;SDS011;9636;47.382;8.480;2023-02-15T01:52:48;4.73;;;4.23;;
19006;SDS011;9636;47.382;8.480;2023-02-15T01:55:17;4.97;;;4.27;;
19006;SDS011;9636;47.382;8.480;2023-02-15T01:57:46;4.73;;;4.23;;
19006;SDS011;9636;47.382;8.480;2023-02-15T02:00:13;5.00;;;4.33;;
19006;SDS011;9636;47.382;8.480;2023-02-15T02:02:42;4.87;;;4.37;;
19006;SDS011;9636;47.382;8.480;2023-02-15T02:05:10;5.10;;;4.13;;
19006;SDS011;9636;47.382;8.480;2023-02-15T02:07:38;5.17;;;4.30;;
19006;SDS011;9636;47.382;8.480;2023-02-15T02:10:08;4.50;;;4.00;;
19006;SDS011;9636;47.382;8.480;2023-02-15T02:12:35;5.07;;;4.43;;
19006;SDS011;9636;47.382;8.480;2023-02-15T02:15:05;5.13;;;4.33;;
19006;SDS011;9636;47.382;8.480;2023-02-15T02:17:35;5.53;;;4.07;;
19006;SDS011;9636;47.382;8.480;2023-02-15T02:20:13;4.87;;;4.20;;
19006;SDS011;9636;47.382;8.480;2023-02-15T02:22:49;5.17;;;4.03;;
19006;SDS011;9636;47.382;8.480;2023-02-15T02:28:23;4.90;;;4.20;;
19006;SDS011;9636;47.382;8.480;2023-02-15T02:31:05;4.67;;;4.20;;
19006;SDS011;9636;47.382;8.480;2023-02-15T02:33:41;4.73;;;4.10;;
19006;SDS011;9636;47.382;8.480;2023-02-15T02:36:15;4.83;;;4.33;;
19006;SDS011;9636;47.382;8.480;2023-02-15T02:38:45;4.67;;;4.17;;
19006;SDS011;9636;47.382;8.480;2023-02-15T02:41:17;4.80;;;4.30;;
19006;SDS011;9636;47.382;8.480;2023-02-15T02:43:47;4.93;;;4.20;;
19006;SDS011;9636;47.382;8.480;2023-02-15T02:46:16;4.90;;;4.33;;
19006;SDS011;9636;47.382;8.480;2023-02-15T02:48:48;5.13;;;4.20;;
19006;SDS011;9636;47.382;8.480;2023-02-15T02:51:15;4.37;;;3.90;;
19006;SDS011;9636;47.382;8.480;2023-02-15T02:53:46;4.70;;;3.97;;
19006;SDS011;9636;47.382;8.480;2023-02-15T02:56:19;4.57;;;3.83;;
19006;SDS011;9636;47.382;8.480;2023-02-15T02:58:48;4.63;;;3.97;;
19006;SDS011;9636;47.382;8.480;2023-02-15T03:01:17;5.07;;;4.40;;
19006;SDS011;9636;47.382;8.480;2023-02-15T03:03:49;5.00;;;4.20;;
19006;SDS011;9636;47.382;8.480;2023-02-15T03:06:19;5.27;;;4.37;;
19006;SDS011;9636;47.382;8.480;2023-02-15T03:08:48;5.23;;;4.10;;
19006;SDS011;9636;47.382;8.480;2023-02-15T03:11:17;4.63;;;4.00;;
19006;SDS011;9636;47.382;8.480;2023-02-15T03:13:44;4.77;;;4.10;;
19006;SDS011;9636;47.382;8.480;2023-02-15T03:16:13;4.73;;;4.20;;
19006;SDS011;9636;47.382;8.480;2023-02-15T03:18:55;5.60;;;4.43;;
19006;SDS011;9636;47.382;8.480;2023-02-15T03:21:26;4.67;;;4.10;;
19006;SDS011;9636;47.382;8.480;2023-02-15T03:23:56;4.13;;;3.73;;
19006;SDS011;9636;47.382;8.480;2023-02-15T03:26:24;4.30;;;3.83;;
19006;SDS011;9636;47.382;8.480;2023-02-15T03:28:52;4.33;;;3.93;;
19006;SDS011;9636;47.382;8.480;2023-02-15T03:31:20;4.43;;;3.97;;
19006;SDS011;9636;47.382;8.480;2023-02-15T03:33:51;3.83;;;3.43;;
19006;SDS011;9636;47.382;8.480;2023-02-15T03:36:20;4.17;;;3.77;;
19006;SDS011;9636;47.382;8.480;2023-02-15T03:38:49;4.57;;;3.80;;
19006;SDS011;9636;47.382;8.480;2023-02-15T03:41:18;4.57;;;3.90;;
19006;SDS011;9636;47.382;8.480;2023-02-15T03:43:48;3.60;;;3.30;;
19006;SDS011;9636;47.382;8.480;2023-02-15T03:46:25;4.07;;;3.60;;
19006;SDS011;9636;47.382;8.480;2023-02-15T03:48:55;3.97;;;3.60;;
19006;SDS011;9636;47.382;8.480;2023-02-15T03:51:26;3.63;;;3.33;;
19006;SDS011;9636;47.382;8.480;2023-02-15T03:54:01;3.57;;;3.20;;
19006;SDS011;9636;47.382;8.480;2023-02-15T03:56:29;3.77;;;3.47;;
19006;SDS011;9636;47.382;8.480;2023-02-15T03:58:56;3.67;;;3.33;;
19006;SDS011;9636;47.382;8.480;2023-02-15T04:01:43;3.80;;;3.40;;
19006;SDS011;9636;47.382;8.480;2023-02-15T04:04:33;4.00;;;3.40;;
19006;SDS011;9636;47.382;8.480;2023-02-15T04:07:02;3.90;;;3.50;;
19006;SDS011;9636;47.382;8.480;2023-02-15T04:09:29;3.60;;;3.30;;
19006;SDS011;9636;47.382;8.480;2023-02-15T04:12:14;4.20;;;3.57;;
19006;SDS011;9636;47.382;8.480;2023-02-15T04:14:41;3.47;;;3.17;;
19006;SDS011;9636;47.382;8.480;2023-02-15T04:17:26;3.17;;;2.87;;
19006;SDS011;9636;47.382;8.480;2023-02-15T04:19:53;3.83;;;3.33;;
19006;SDS011;9636;47.382;8.480;2023-02-15T04:22:40;3.77;;;3.20;;
19006;SDS011;9636;47.382;8.480;2023-02-15T04:25:24;3.20;;;2.90;;
19006;SDS011;9636;47.382;8.480;2023-02-15T04:27:53;3.47;;;3.17;;
19006;SDS011;9636;47.382;8.480;2023-02-15T04:30:21;3.97;;;3.20;;
19006;SDS011;9636;47.382;8.480;2023-02-15T04:32:49;3.43;;;3.13;;
19006;SDS011;9636;47.382;8.480;2023-02-15T04:35:16;4.30;;;3.27;;
19006;SDS011;9636;47.382;8.480;2023-02-15T04:37:45;3.50;;;3.20;;
19006;SDS011;9636;47.382;8.480;2023-02-15T04:40:13;3.00;;;2.70;;
19006;SDS011;9636;47.382;8.480;2023-02-15T04:42:40;3.30;;;3.00;;
19006;SDS011;9636;47.382;8.480;2023-02-15T04:45:07;3.13;;;2.83;;
19006;SDS011;9636;47.382;8.480;2023-02-15T04:47:35;3.23;;;2.93;;
19006;SDS011;9636;47.382;8.480;2023-02-15T04:50:02;3.30;;;3.00;;
19006;SDS011;9636;47.382;8.480;2023-02-15T04:52:29;3.20;;;2.90;;
19006;SDS011;9636;47.382;8.480;2023-02-15T04:54:58;2.90;;;2.70;;
19006;SDS011;9636;47.382;8.480;2023-02-15T04:57:25;3.37;;;3.07;;
19006;SDS011;9636;47.382;8.480;2023-02-15T04:59:52;3.30;;;2.97;;
19006;SDS011;9636;47.382;8.480;2023-02-15T05:02:19;3.20;;;2.90;;
19006;SDS011;9636;47.382;8.480;2023-02-15T05:04:46;3.50;;;3.10;;
19006;SDS011;9636;47.382;8.480;2023-02-15T05:07:14;3.30;;;3.00;;
19006;SDS011;9636;47.382;8.480;2023-02-15T05:09:41;3.37;;;3.07;;
19006;SDS011;9636;47.382;8.480;2023-02-15T05:12:10;3.33;;;3.03;;
19006;SDS011;9636;47.382;8.480;2023-02-15T05:14:37;3.73;;;3.10;;
19006;SDS011;9636;47.382;8.480;2023-02-15T05:17:04;2.90;;;2.70;;
19006;SDS011;9636;47.382;8.480;2023-02-15T05:19:31;3.10;;;2.80;;
19006;SDS011;9636;47.382;8.480;2023-02-15T05:21:58;3.30;;;3.00;;
19006;SDS011;9636;47.382;8.480;2023-02-15T05:24:25;3.67;;;2.90;;
19006;SDS011;9636;47.382;8.480;2023-02-15T05:27:11;3.70;;;3.13;;
19006;SDS011;9636;47.382;8.480;2023-02-15T05:29:56;2.80;;;2.60;;
19006;SDS011;9636;47.382;8.480;2023-02-15T05:32:24;3.27;;;2.97;;
19006;SDS011;9636;47.382;8.480;2023-02-15T05:34:51;3.40;;;3.10;;
19006;SDS011;9636;47.382;8.480;2023-02-15T05:37:18;3.03;;;2.73;;
19006;SDS011;9636;47.382;8.480;2023-02-15T06:03:09;3.30;;;3.00;;
19006;SDS011;9636;47.382;8.480;2023-02-15T06:05:39;3.40;;;3.10;;
19006;SDS011;9636;47.382;8.480;2023-02-15T06:08:15;3.33;;;3.00;;
19006;SDS011;9636;47.382;8.480;2023-02-15T06:10:48;3.20;;;2.90;;
19006;SDS011;9636;47.382;8.480;2023-02-15T06:34:59;3.13;;;2.83;;
19006;SDS011;9636;47.382;8.480;2023-02-15T07:01:22;3.27;;;2.97;;
19006;SDS011;9636;47.382;8.480;2023-02-15T07:03:49;3.13;;;2.83;;
19006;SDS011;9636;47.382;8.480;2023-02-15T07:06:16;6.60;;;3.23;;
19006;SDS011;9636;47.382;8.480;2023-02-15T07:08:43;3.57;;;2.73;;
19006;SDS011;9636;47.382;8.480;2023-02-15T07:11:10;3.00;;;2.77;;
19006;SDS011;9636;47.382;8.480;2023-02-15T07:13:55;3.10;;;2.80;;
19006;SDS011;9636;47.382;8.480;2023-02-15T07:16:23;3.07;;;2.77;;
19006;SDS011;9636;47.382;8.480;2023-02-15T07:18:50;3.47;;;3.17;;
19006;SDS011;9636;47.382;8.480;2023-02-15T07:21:18;3.80;;;3.00;;
19006;SDS011;9636;47.382;8.480;2023-02-15T07:23:45;3.10;;;2.80;;
19006;SDS011;9636;47.382;8.480;2023-02-15T07:26:12;4.67;;;3.47;;
19006;SDS011;9636;47.382;8.480;2023-02-15T07:28:39;3.70;;;3.07;;
19006;SDS011;9636;47.382;8.480;2023-02-15T07:31:07;4.07;;;3.67;;
19006;SDS011;9636;47.382;8.480;2023-02-15T07:33:35;3.13;;;2.87;;
19006;SDS011;9636;47.382;8.480;2023-02-15T07:36:02;4.13;;;2.77;;
19006;SDS011;9636;47.382;8.480;2023-02-15T07:38:31;3.63;;;3.00;;
19006;SDS011;9636;47.382;8.480;2023-02-15T07:40:58;2.83;;;2.57;;
19006;SDS011;9636;47.382;8.480;2023-02-15T07:43:25;3.40;;;3.03;;
19006;SDS011;9636;47.382;8.480;2023-02-15T07:45:53;3.33;;;2.80;;
19006;SDS011;9636;47.382;8.480;2023-02-15T07:48:20;3.57;;;3.13;;
19006;SDS011;9636;47.382;8.480;2023-02-15T07:50:48;3.33;;;3.00;;
19006;SDS011;9636;47.382;8.480;2023-02-15T07:53:15;3.67;;;3.13;;
19006;SDS011;9636;47.382;8.480;2023-02-15T07:55:43;3.77;;;3.30;;
19006;SDS011;9636;47.382;8.480;2023-02-15T07:58:10;3.93;;;3.20;;
19006;SDS011;9636;47.382;8.480;2023-02-15T08:00:37;4.33;;;3.17;;
19006;SDS011;9636;47.382;8.480;2023-02-15T08:03:18;4.07;;;3.63;;
19006;SDS011;9636;47.382;8.480;2023-02-15T08:05:45;3.57;;;3.27;;
19006;SDS011;9636;47.382;8.480;2023-02-15T08:08:13;4.30;;;3.30;;
19006;SDS011;9636;47.382;8.480;2023-02-15T08:10:57;3.47;;;3.17;;
19006;SDS011;9636;47.382;8.480;2023-02-15T08:13:42;3.67;;;3.27;;
19006;SDS011;9636;47.382;8.480;2023-02-15T08:16:18;3.90;;;3.40;;
19006;SDS011;9636;47.382;8.480;2023-02-15T08:18:45;3.30;;;3.00;;
19006;SDS011;9636;47.382;8.480;2023-02-15T08:21:13;3.67;;;3.33;;
19006;SDS011;9636;47.382;8.480;2023-02-15T08:23:41;3.97;;;3.33;;
19006;SDS011;9636;47.382;8.480;2023-02-15T08:26:09;4.70;;;3.37;;
19006;SDS011;9636;47.382;8.480;2023-02-15T08:28:36;3.50;;;3.20;;
19006;SDS011;9636;47.382;8.480;2023-02-15T08:31:04;3.03;;;2.73;;
19006;SDS011;9636;47.382;8.480;2023-02-15T08:33:31;3.60;;;3.30;;
19006;SDS011;9636;47.382;8.480;2023-02-15T08:36:01;4.40;;;3.30;;
19006;SDS011;9636;47.382;8.480;2023-02-15T08:38:28;4.00;;;3.07;;
19006;SDS011;9636;47.382;8.480;2023-02-15T08:40:57;3.70;;;3.17;;
19006;SDS011;9636;47.382;8.480;2023-02-15T08:43:24;4.00;;;3.60;;
19006;SDS011;9636;47.382;8.480;2023-02-15T08:45:51;3.90;;;3.50;;
19006;SDS011;9636;47.382;8.480;2023-02-15T08:48:18;4.07;;;3.40;;
19006;SDS011;9636;47.382;8.480;2023-02-15T08:50:45;6.83;;;3.60;;
19006;SDS011;9636;47.382;8.480;2023-02-15T08:53:12;4.23;;;3.37;;
19006;SDS011;9636;47.382;8.480;2023-02-15T08:55:39;4.60;;;3.33;;
19006;SDS011;9636;47.382;8.480;2023-02-15T08:58:08;4.30;;;3.40;;
19006;SDS011;9636;47.382;8.480;2023-02-15T09:00:35;4.10;;;3.17;;
19006;SDS011;9636;47.382;8.480;2023-02-15T09:03:02;4.07;;;3.47;;
19006;SDS011;9636;47.382;8.480;2023-02-15T09:05:29;4.47;;;2.97;;
19006;SDS011;9636;47.382;8.480;2023-02-15T09:07:56;4.30;;;3.90;;
19006;SDS011;9636;47.382;8.480;2023-02-15T09:10:23;3.63;;;3.33;;
19006;SDS011;9636;47.382;8.480;2023-02-15T09:12:51;4.83;;;3.60;;
19006;SDS011;9636;47.382;8.480;2023-02-15T09:15:20;4.30;;;3.63;;
19006;SDS011;9636;47.382;8.480;2023-02-15T09:17:47;3.83;;;3.30;;
19006;SDS011;9636;47.382;8.480;2023-02-15T09:20:14;4.07;;;3.47;;
19006;SDS011;9636;47.382;8.480;2023-02-15T09:22:41;5.30;;;3.63;;
19006;SDS011;9636;47.382;8.480;2023-02-15T09:25:08;3.47;;;3.17;;
19006;SDS011;9636;47.382;8.480;2023-02-15T09:27:35;3.60;;;3.30;;
19006;SDS011;9636;47.382;8.480;2023-02-15T09:30:03;3.93;;;3.50;;
19006;SDS011;9636;47.382;8.480;2023-02-15T09:32:32;3.60;;;3.30;;
19006;SDS011;9636;47.382;8.480;2023-02-15T09:34:59;4.33;;;3.73;;
19006;SDS011;9636;47.382;8.480;2023-02-15T09:37:26;4.23;;;3.57;;
19006;SDS011;9636;47.382;8.480;2023-02-15T09:39:53;4.97;;;3.17;;
19006;SDS011;9636;47.382;8.480;2023-02-15T09:42:25;3.67;;;3.30;;
19006;SDS011;9636;47.382;8.480;2023-02-15T09:45:03;4.00;;;3.20;;
19006;SDS011;9636;47.382;8.480;2023-02-15T09:50:16;6.23;;;3.63;;
19006;SDS011;9636;47.382;8.480;2023-02-15T09:52:50;4.33;;;3.50;;
19006;SDS011;9636;47.382;8.480;2023-02-15T09:55:24;3.97;;;3.57;;
19006;SDS011;9636;47.382;8.480;2023-02-15T09:57:59;3.77;;;3.37;;
19006;SDS011;9636;47.382;8.480;2023-02-15T10:00:31;4.00;;;3.60;;
19006;SDS011;9636;47.382;8.480;2023-02-15T10:03:10;5.40;;;3.57;;
19006;SDS011;9636;47.382;8.480;2023-02-15T10:05:43;3.87;;;3.40;;
19006;SDS011;9636;47.382;8.480;2023-02-15T10:10:57;4.83;;;4.00;;
19006;SDS011;9636;47.382;8.480;2023-02-15T10:13:49;4.83;;;3.77;;
19006;SDS011;9636;47.382;8.480;2023-02-15T10:16:19;4.50;;;3.60;;
19006;SDS011;9636;47.382;8.480;2023-02-15T10:18:53;5.37;;;3.73;;
19006;SDS011;9636;47.382;8.480;2023-02-15T10:21:36;3.80;;;3.07;;
19006;SDS011;9636;47.382;8.480;2023-02-15T10:24:10;3.73;;;3.43;;
19006;SDS011;9636;47.382;8.480;2023-02-15T10:26:43;4.53;;;3.50;;
19006;SDS011;9636;47.382;8.480;2023-02-15T10:29:12;4.00;;;3.60;;
19006;SDS011;9636;47.382;8.480;2023-02-15T10:31:46;4.07;;;3.50;;
19006;SDS011;9636;47.382;8.480;2023-02-15T10:34:15;4.87;;;3.97;;
19006;SDS011;9636;47.382;8.480;2023-02-15T10:36:57;4.60;;;3.67;;
19006;SDS011;9636;47.382;8.480;2023-02-15T10:39:30;5.07;;;3.93;;
19006;SDS011;9636;47.382;8.480;2023-02-15T10:42:02;5.73;;;4.00;;
19006;SDS011;9636;47.382;8.480;2023-02-15T10:44:36;5.57;;;3.30;;
19006;SDS011;9636;47.382;8.480;2023-02-15T10:47:14;4.87;;;3.80;;
19006;SDS011;9636;47.382;8.480;2023-02-15T10:50:02;4.47;;;3.90;;
19006;SDS011;9636;47.382;8.480;2023-02-15T10:52:37;3.97;;;3.57;;
19006;SDS011;9636;47.382;8.480;2023-02-15T10:55:10;4.33;;;3.90;;
19006;SDS011;9636;47.382;8.480;2023-02-15T10:57:46;4.23;;;3.73;;
19006;SDS011;9636;47.382;8.480;2023-02-15T11:00:15;4.67;;;3.77;;
19006;SDS011;9636;47.382;8.480;2023-02-15T11:02:56;4.07;;;3.30;;
19006;SDS011;9636;47.382;8.480;2023-02-15T11:05:27;4.77;;;3.60;;
19006;SDS011;9636;47.382;8.480;2023-02-15T11:07:58;4.60;;;3.90;;
19006;SDS011;9636;47.382;8.480;2023-02-15T11:10:28;4.43;;;3.77;;
19006;SDS011;9636;47.382;8.480;2023-02-15T11:12:56;5.03;;;3.57;;
19006;SDS011;9636;47.382;8.480;2023-02-15T11:15:25;4.73;;;4.10;;
19006;SDS011;9636;47.382;8.480;2023-02-15T11:17:57;5.23;;;3.87;;
19006;SDS011;9636;47.382;8.480;2023-02-15T11:20:28;5.03;;;3.93;;
19006;SDS011;9636;47.382;8.480;2023-02-15T11:22:58;6.40;;;4.50;;
19006;SDS011;9636;47.382;8.480;2023-02-15T11:25:30;4.03;;;3.63;;
19006;SDS011;9636;47.382;8.480;2023-02-15T11:27:57;5.90;;;4.37;;
19006;SDS011;9636;47.382;8.480;2023-02-15T11:30:26;4.27;;;3.67;;
19006;SDS011;9636;47.382;8.480;2023-02-15T11:32:55;5.20;;;3.90;;
19006;SDS011;9636;47.382;8.480;2023-02-15T11:35:25;5.67;;;4.17;;
19006;SDS011;9636;47.382;8.480;2023-02-15T11:37:54;5.27;;;4.00;;
19006;SDS011;9636;47.382;8.480;2023-02-15T11:40:24;4.40;;;3.90;;
19006;SDS011;9636;47.382;8.480;2023-02-15T11:42:51;5.30;;;4.23;;
19006;SDS011;9636;47.382;8.480;2023-02-15T11:45:22;4.40;;;3.87;;
19006;SDS011;9636;47.382;8.480;2023-02-15T11:47:49;4.67;;;3.83;;
19006;SDS011;9636;47.382;8.480;2023-02-15T11:50:19;5.17;;;3.90;;
19006;SDS011;9636;47.382;8.480;2023-02-15T11:52:47;4.90;;;3.97;;
19006;SDS011;9636;47.382;8.480;2023-02-15T11:55:17;5.97;;;4.50;;
19006;SDS011;9636;47.382;8.480;2023-02-15T11:57:47;4.80;;;4.27;;
19006;SDS011;9636;47.382;8.480;2023-02-15T12:00:16;4.00;;;3.60;;
19006;SDS011;9636;47.382;8.480;2023-02-15T12:02:48;3.80;;;3.40;;
19006;SDS011;9636;47.382;8.480;2023-02-15T12:05:17;4.07;;;3.47;;
19006;SDS011;9636;47.382;8.480;2023-02-15T12:07:48;5.57;;;3.95;;
19006;SDS011;9636;47.382;8.480;2023-02-15T12:10:17;4.25;;;3.70;;
19006;SDS011;9636;47.382;8.480;2023-02-15T12:12:47;4.45;;;3.50;;
19006;SDS011;9636;47.382;8.480;2023-02-15T12:15:14;4.25;;;3.85;;
19006;SDS011;9636;47.382;8.480;2023-02-15T12:17:48;4.43;;;3.55;;
19006;SDS011;9636;47.382;8.480;2023-02-15T12:20:24;5.78;;;3.45;;
19006;SDS011;9636;47.382;8.480;2023-02-15T12:22:53;4.55;;;3.47;;
19006;SDS011;9636;47.382;8.480;2023-02-15T12:25:21;4.00;;;3.60;;
19006;SDS011;9636;47.382;8.480;2023-02-15T12:27:50;4.05;;;3.65;;
19006;SDS011;9636;47.382;8.480;2023-02-15T12:30:18;4.70;;;3.80;;
19006;SDS011;9636;47.382;8.480;2023-02-15T12:32:47;3.97;;;3.58;;
19006;SDS011;9636;47.382;8.480;2023-02-15T12:35:18;4.00;;;3.60;;
19006;SDS011;9636;47.382;8.480;2023-02-15T12:37:52;4.00;;;3.60;;
19006;SDS011;9636;47.382;8.480;2023-02-15T12:40:21;3.70;;;3.33;;
19006;SDS011;9636;47.382;8.480;2023-02-15T12:42:50;3.53;;;3.22;;
19006;SDS011;9636;47.382;8.480;2023-02-15T12:45:21;3.53;;;3.22;;
19006;SDS011;9636;47.382;8.480;2023-02-15T12:47:50;3.42;;;3.13;;
19006;SDS011;9636;47.382;8.480;2023-02-15T12:50:34;4.20;;;3.22;;
19006;SDS011;9636;47.382;8.480;2023-02-15T12:53:08;4.15;;;3.75;;
19006;SDS011;9636;47.382;8.480;2023-02-15T12:55:40;4.03;;;3.60;;
19006;SDS011;9636;47.382;8.480;2023-02-15T12:58:17;3.75;;;3.30;;
19006;SDS011;9636;47.382;8.480;2023-02-15T13:00:45;4.85;;;3.33;;
19006;SDS011;9636;47.382;8.480;2023-02-15T13:03:16;3.75;;;3.40;;
19006;SDS011;9636;47.382;8.480;2023-02-15T13:05:44;5.00;;;3.50;;
19006;SDS011;9636;47.382;8.480;2023-02-15T13:08:12;3.63;;;3.33;;
19006;SDS011;9636;47.382;8.480;2023-02-15T13:10:41;3.70;;;3.22;;
19006;SDS011;9636;47.382;8.480;2023-02-15T13:13:10;3.53;;;3.22;;
19006;SDS011;9636;47.382;8.480;2023-02-15T13:15:40;3.60;;;3.30;;
19006;SDS011;9636;47.382;8.480;2023-02-15T13:18:10;4.03;;;3.47;;
19006;SDS011;9636;47.382;8.480;2023-02-15T13:20:39;3.60;;;3.30;;
19006;SDS011;9636;47.382;8.480;2023-02-15T13:23:09;3.75;;;3.45;;
19006;SDS011;9636;47.382;8.480;2023-02-15T13:25:44;3.50;;;3.20;;
19006;SDS011;9636;47.382;8.480;2023-02-15T13:28:15;3.63;;;3.33;;
19006;SDS011;9636;47.382;8.480;2023-02-15T13:30:46;4.00;;;3.60;;
19006;SDS011;9636;47.382;8.480;2023-02-15T13:33:15;3.50;;;3.20;;
19006;SDS011;9636;47.382;8.480;2023-02-15T13:35:44;4.32;;;3.60;;
19006;SDS011;9636;47.382;8.480;2023-02-15T13:38:20;3.92;;;3.53;;
19006;SDS011;9636;47.382;8.480;2023-02-15T13:40:51;3.25;;;2.97;;
19006;SDS011;9636;47.382;8.480;2023-02-15T13:43:23;3.67;;;3.20;;
19006;SDS011;9636;47.382;8.480;2023-02-15T13:45:56;4.05;;;3.65;;
19006;SDS011;9636;47.382;8.480;2023-02-15T13:48:29;4.35;;;3.35;;
19006;SDS011;9636;47.382;8.480;2023-02-15T13:51:02;12.50;;;3.60;;
19006;SDS011;9636;47.382;8.480;2023-02-15T13:53:35;4.93;;;3.33;;
19006;SDS011;9636;47.382;8.480;2023-02-15T13:56:06;4.93;;;3.40;;
19006;SDS011;9636;47.382;8.480;2023-02-15T13:58:44;6.80;;;2.90;;
19006;SDS011;9636;47.382;8.480;2023-02-15T14:01:20;4.63;;;3.40;;
19006;SDS011;9636;47.382;8.480;2023-02-15T14:03:54;5.10;;;3.03;;
19006;SDS011;9636;47.382;8.480;2023-02-15T14:06:27;3.55;;;3.08;;
19006;SDS011;9636;47.382;8.480;2023-02-15T14:09:01;4.03;;;2.97;;
19006;SDS011;9636;47.382;8.480;2023-02-15T14:11:32;8.18;;;3.17;;
19006;SDS011;9636;47.382;8.480;2023-02-15T14:14:15;4.40;;;3.00;;
19006;SDS011;9636;47.382;8.480;2023-02-15T14:16:51;4.07;;;2.78;;
19006;SDS011;9636;47.382;8.480;2023-02-15T14:19:22;4.07;;;3.20;;
19006;SDS011;9636;47.382;8.480;2023-02-15T14:21:53;3.63;;;2.60;;
19006;SDS011;9636;47.382;8.480;2023-02-15T14:24:27;7.35;;;3.03;;
19006;SDS011;9636;47.382;8.480;2023-02-15T14:26:59;10.00;;;4.60;;
19006;SDS011;9636;47.382;8.480;2023-02-15T14:29:31;10.82;;;4.57;;
19006;SDS011;9636;47.382;8.480;2023-02-15T14:32:07;14.00;;;4.65;;
19006;SDS011;9636;47.382;8.480;2023-02-15T14:34:37;9.20;;;3.72;;
19006;SDS011;9636;47.382;8.480;2023-02-15T14:37:08;9.18;;;4.20;;
19006;SDS011;9636;47.382;8.480;2023-02-15T14:39:40;6.20;;;4.30;;
19006;SDS011;9636;47.382;8.480;2023-02-15T14:42:29;9.85;;;4.00;;
19006;SDS011;9636;47.382;8.480;2023-02-15T14:45:00;10.20;;;3.95;;
19006;SDS011;9636;47.382;8.480;2023-02-15T14:47:31;8.15;;;3.85;;
19006;SDS011;9636;47.382;8.480;2023-02-15T14:50:00;11.50;;;3.67;;
19006;SDS011;9636;47.382;8.480;2023-02-15T14:55:34;11.27;;;3.88;;
19006;SDS011;9636;47.382;8.480;2023-02-15T14:58:01;16.98;;;9.73;;
19006;SDS011;9636;47.382;8.480;2023-02-15T15:00:30;34.50;;;17.85;;
19006;SDS011;9636;47.382;8.480;2023-02-15T15:03:00;31.45;;;18.25;;
19006;SDS011;9636;47.382;8.480;2023-02-15T15:05:29;36.78;;;18.65;;
19006;SDS011;9636;47.382;8.480;2023-02-15T15:07:59;31.40;;;18.60;;
19006;SDS011;9636;47.382;8.480;2023-02-15T15:10:36;34.03;;;18.10;;
19006;SDS011;9636;47.382;8.480;2023-02-15T15:15:45;30.50;;;16.42;;
19006;SDS011;9636;47.382;8.480;2023-02-15T15:18:42;32.55;;;17.42;;
19006;SDS011;9636;47.382;8.480;2023-02-15T15:21:03;30.58;;;16.70;;
19006;SDS011;9636;47.382;8.480;2023-02-15T15:23:39;29.00;;;16.23;;
19006;SDS011;9636;47.382;8.480;2023-02-15T15:26:26;29.17;;;16.15;;
19006;SDS011;9636;47.382;8.480;2023-02-15T15:28:55;25.48;;;15.90;;
19006;SDS011;9636;47.382;8.480;2023-02-15T15:31:23;28.45;;;14.80;;
19006;SDS011;9636;47.382;8.480;2023-02-15T15:36:39;23.67;;;14.60;;
19006;SDS011;9636;47.382;8.480;2023-02-15T15:39:12;24.58;;;15.02;;
19006;SDS011;9636;47.382;8.480;2023-02-15T15:41:47;26.67;;;14.07;;
19006;SDS011;9636;47.382;8.480;2023-02-15T15:47:17;27.17;;;14.82;;
19006;SDS011;9636;47.382;8.480;2023-02-15T15:49:47;21.17;;;13.32;;
19006;SDS011;9636;47.382;8.480;2023-02-15T15:52:16;29.90;;;14.82;;
19006;SDS011;9636;47.382;8.480;2023-02-15T15:54:44;23.00;;;13.68;;
19006;SDS011;9636;47.382;8.480;2023-02-15T15:57:14;27.20;;;14.20;;
19006;SDS011;9636;47.382;8.480;2023-02-15T15:59:43;25.88;;;12.68;;
19006;SDS011;9636;47.382;8.480;2023-02-15T16:02:12;23.25;;;11.52;;
19006;SDS011;9636;47.382;8.480;2023-02-15T16:04:40;20.10;;;11.55;;
19006;SDS011;9636;47.382;8.480;2023-02-15T16:07:18;20.17;;;12.00;;
19006;SDS011;9636;47.382;8.480;2023-02-15T16:09:53;19.02;;;11.10;;
19006;SDS011;9636;47.382;8.480;2023-02-15T16:12:20;16.92;;;11.40;;
19006;SDS011;9636;47.382;8.480;2023-02-15T16:14:48;22.55;;;11.77;;
19006;SDS011;9636;47.382;8.480;2023-02-15T16:17:19;20.20;;;11.38;;
19006;SDS011;9636;47.382;8.480;2023-02-15T16:19:47;20.65;;;11.10;;
19006;SDS011;9636;47.382;8.480;2023-02-15T16:22:18;17.75;;;10.68;;
19006;SDS011;9636;47.382;8.480;2023-02-15T16:24:50;15.20;;;10.55;;
19006;SDS011;9636;47.382;8.480;2023-02-15T16:27:27;18.27;;;10.95;;
19006;SDS011;9636;47.382;8.480;2023-02-15T16:29:56;16.90;;;10.52;;
19006;SDS011;9636;47.382;8.480;2023-02-15T16:32:26;19.65;;;10.80;;
19006;SDS011;9636;47.382;8.480;2023-02-15T16:34:54;18.00;;;11.05;;
19006;SDS011;9636;47.382;8.480;2023-02-15T16:37:24;17.38;;;10.50;;
19006;SDS011;9636;47.382;8.480;2023-02-15T16:39:52;18.80;;;10.02;;
19006;SDS011;9636;47.382;8.480;2023-02-15T16:42:19;14.90;;;9.98;;
19006;SDS011;9636;47.382;8.480;2023-02-15T16:44:48;16.58;;;11.27;;
19006;SDS011;9636;47.382;8.480;2023-02-15T16:47:16;15.77;;;9.35;;